Hujirt, Mongolia
Current Conditions -  °F | °C
As of 10:30 AM on Tuesday 21 Oct 2014 (Local Time) from ZMUB Reporting Station
Clear Clear  
Wind Chill: 34°   Ceiling: Unl
Heat Index: 34°   Visibility: 5mi
Dew Point: 16°   Wind: 0mph
Humidity: 48%   Direction: NA
Pressure: 30.12"   Gusts: NA
Location:  46.9°N, 102.77°E
Report Text: ZMUB 210230Z 00000MPS 8000NW NSC 01/M09 Q1020 NOSIG RMK QFE657.3 48 NW MO
Loading
Personal Weather Stations






























Interactive Weather Map
Tropical Storm Tracking
New forecast layout! Learn more

10-Day Weather Forecast

Advertisements
Track Severe Weather on mobile